Terminal Aerodrome Forecast
Issued by NWS King Salmon, AK

Home | Current Version | Previous Version | Text Only | Print | Product List | Glossary On
Versions: 1 2 3 4 5 6 7 8 9 10 11 12 13 14 15
000
FTAK31 PANC 301734
TAFAKN
TAF
PAKN 301734Z 3018/3118 34006KT P6SM SCT020
      TEMPO 3018/3021 BKN020
     FM311400 03015KT P6SM VCSH BKN050 OVC120
     FM311700 03015KT 6SM -SN OVC025=

USA.gov is the U.S. government's official web portal to all federal, state and local government web resources and services.